createdAt,value
2024-04-16T00:02:23.820Z,64.35
2024-04-16T00:04:50.864Z,63.65
2024-04-16T00:07:17.649Z,63.81
2024-04-16T00:09:44.427Z,63.80
2024-04-16T00:12:11.170Z,62.00
2024-04-16T00:15:05.124Z,63.00
2024-04-16T00:17:34.831Z,63.11
2024-04-16T00:20:01.799Z,63.25
2024-04-16T00:22:28.728Z,62.90
2024-04-16T00:24:55.407Z,62.74
2024-04-16T00:27:22.172Z,62.90
2024-04-16T00:29:48.883Z,62.36
2024-04-16T00:32:15.605Z,63.84
2024-04-16T00:34:42.378Z,64.67
2024-04-16T00:37:09.253Z,63.69
2024-04-16T00:39:36.322Z,64.09
2024-04-16T00:42:03.334Z,63.15
2024-04-16T00:44:30.046Z,62.78
2024-04-16T00:46:57.027Z,62.60
2024-04-16T00:49:24.178Z,63.54
2024-04-16T00:51:52.613Z,63.27
2024-04-16T00:54:19.824Z,62.33
2024-04-16T00:56:46.936Z,62.10
2024-04-16T00:59:15.081Z,62.78
2024-04-16T01:01:41.895Z,62.32
2024-04-16T01:04:08.843Z,61.16
2024-04-16T01:06:37.055Z,60.54
2024-04-16T01:09:04.146Z,61.79
2024-04-16T01:11:31.223Z,61.22
2024-04-16T01:13:58.328Z,60.94
2024-04-16T01:16:25.538Z,61.18
2024-04-16T01:18:52.494Z,60.94
2024-04-16T01:21:19.183Z,60.45
2024-04-16T01:23:45.890Z,60.65
2024-04-16T01:26:12.763Z,60.28
2024-04-16T01:28:39.481Z,61.20
2024-04-16T01:31:06.193Z,62.80
2024-04-16T01:33:32.889Z,61.76
2024-04-16T01:36:00.436Z,62.06
2024-04-16T01:38:27.223Z,62.00
2024-04-16T01:40:53.946Z,62.53
2024-04-16T01:43:20.895Z,62.59
2024-04-16T01:45:47.621Z,62.59
2024-04-16T01:48:14.474Z,62.89
2024-04-16T01:50:41.450Z,62.71
2024-04-16T01:53:08.519Z,62.90
2024-04-16T01:55:36.109Z,62.11
2024-04-16T01:58:04.254Z,63.26
2024-04-16T02:00:30.990Z,62.38
2024-04-16T02:03:01.197Z,64.78
2024-04-16T02:05:28.520Z,65.25
2024-04-16T02:07:55.316Z,65.74
2024-04-16T02:10:22.409Z,64.40
2024-04-16T02:12:49.343Z,63.39
2024-04-16T02:15:16.095Z,62.81
2024-04-16T02:17:42.941Z,63.40
2024-04-16T02:20:10.274Z,63.08
2024-04-16T02:22:37.013Z,63.63
2024-04-16T02:25:04.277Z,63.85
2024-04-16T02:27:30.980Z,62.71
2024-04-16T02:29:57.687Z,63.62
2024-04-16T02:32:24.464Z,63.66
2024-04-16T02:34:51.193Z,64.48
2024-04-16T02:37:17.872Z,63.55
2024-04-16T02:39:44.605Z,64.07
2024-04-16T02:42:12.113Z,63.66
2024-04-16T02:44:38.953Z,63.95
2024-04-16T02:47:06.460Z,62.93
2024-04-16T02:49:33.496Z,62.16
2024-04-16T02:52:00.383Z,63.26
2024-04-16T02:54:27.086Z,62.85
2024-04-16T02:56:53.797Z,62.75
2024-04-16T02:59:20.512Z,62.68
2024-04-16T03:01:47.303Z,63.68
2024-04-16T03:04:14.072Z,63.69
2024-04-16T03:06:40.795Z,62.73
2024-04-16T03:09:08.120Z,63.03
2024-04-16T03:11:34.924Z,63.90
2024-04-16T03:14:02.345Z,63.96
2024-04-16T03:16:29.099Z,63.36
2024-04-16T03:18:55.827Z,65.05
2024-04-16T03:21:25.554Z,64.70
2024-04-16T03:23:52.791Z,64.76
2024-04-16T03:26:19.532Z,64.21
2024-04-16T03:28:46.216Z,63.61
2024-04-16T03:31:12.949Z,62.16
2024-04-16T03:33:39.718Z,64.40
2024-04-16T03:36:06.664Z,63.81
2024-04-16T03:38:33.478Z,63.06
2024-04-16T03:41:04.342Z,63.78
2024-04-16T03:43:33.071Z,62.83
2024-04-16T03:46:00.865Z,62.87
2024-04-16T03:48:27.739Z,63.00
2024-04-16T03:50:54.654Z,62.72
2024-04-16T03:53:21.535Z,63.58
2024-04-16T03:55:48.296Z,63.84
2024-04-16T03:58:15.262Z,63.94
2024-04-16T04:01:01.062Z,63.39
2024-04-16T04:03:28.319Z,63.59
2024-04-16T04:05:55.761Z,63.64
2024-04-16T04:08:22.830Z,63.71
2024-04-16T04:10:49.721Z,63.23
2024-04-16T04:13:16.522Z,63.79
2024-04-16T04:15:43.581Z,63.60
2024-04-16T04:18:11.265Z,62.98
2024-04-16T04:20:41.255Z,61.96
2024-04-16T04:23:08.799Z,61.11
2024-04-16T04:25:35.767Z,60.75
2024-04-16T04:28:02.861Z,60.36
2024-04-16T04:30:29.734Z,60.78
2024-04-16T04:32:57.453Z,62.40
2024-04-16T04:35:24.189Z,61.63
2024-04-16T04:37:50.950Z,61.32
2024-04-16T04:40:17.841Z,61.74
2024-04-16T04:42:44.683Z,61.16
2024-04-16T04:45:11.394Z,61.52
2024-04-16T04:47:38.284Z,60.79
2024-04-16T04:50:05.599Z,62.24
2024-04-16T04:52:32.977Z,62.40
2024-04-16T04:55:03.222Z,61.58
2024-04-16T04:57:30.002Z,61.00
2024-04-16T04:59:56.716Z,61.52
2024-04-16T05:02:23.455Z,62.00
2024-04-16T05:04:50.254Z,61.87
2024-04-16T05:07:17.031Z,62.83
2024-04-16T05:09:43.769Z,62.58
2024-04-16T05:12:12.525Z,61.91
2024-04-16T05:14:40.605Z,61.77
2024-04-16T05:17:07.274Z,62.42
2024-04-16T05:19:34.770Z,61.45
2024-04-16T05:22:01.655Z,60.44
2024-04-16T05:24:28.411Z,60.48
2024-04-16T05:26:55.122Z,61.18
2024-04-16T05:29:21.839Z,62.05
2024-04-16T05:31:48.561Z,63.96
2024-04-16T05:34:15.882Z,62.92
2024-04-16T05:36:42.594Z,62.37
2024-04-16T05:39:09.475Z,62.36
2024-04-16T05:41:36.140Z,62.27
2024-04-16T05:44:02.879Z,62.33
2024-04-16T05:46:29.583Z,63.21
2024-04-16T05:48:56.324Z,63.17
2024-04-16T05:51:23.156Z,62.38
2024-04-16T05:53:49.904Z,62.16
2024-04-16T05:56:16.899Z,61.77
2024-04-16T05:58:43.788Z,62.84
2024-04-16T06:01:10.655Z,62.83
2024-04-16T06:03:37.424Z,64.26
2024-04-16T06:06:04.366Z,64.25
2024-04-16T06:08:31.245Z,62.38
2024-04-16T06:10:58.110Z,62.01
2024-04-16T06:13:24.837Z,61.40
2024-04-16T06:15:51.624Z,62.59
2024-04-16T06:18:18.361Z,63.58
2024-04-16T06:20:45.099Z,62.83
2024-04-16T06:23:11.769Z,63.14
2024-04-16T06:25:40.273Z,61.79
2024-04-16T06:28:07.091Z,61.44
2024-04-16T06:30:33.826Z,61.85
2024-04-16T06:33:00.698Z,61.41
2024-04-16T06:35:27.474Z,61.36
2024-04-16T06:37:54.170Z,62.80
2024-04-16T06:40:20.842Z,62.03
2024-04-16T06:42:47.639Z,62.42
2024-04-16T06:45:14.324Z,60.82
2024-04-16T06:47:41.129Z,60.65
2024-04-16T06:50:08.153Z,61.28
2024-04-16T06:52:34.977Z,61.56
2024-04-16T06:55:01.722Z,61.84
2024-04-16T06:57:28.673Z,61.92
2024-04-16T06:59:55.519Z,61.42
2024-04-16T07:02:22.306Z,60.02
2024-04-16T07:04:49.006Z,60.52
2024-04-16T07:07:15.722Z,59.16
2024-04-16T07:09:44.410Z,59.37
2024-04-16T07:12:11.125Z,59.16
2024-04-16T07:14:37.883Z,59.62
2024-04-16T07:17:05.242Z,59.96
2024-04-16T07:19:31.935Z,59.59
2024-04-16T07:21:58.651Z,58.19
2024-04-16T07:24:25.374Z,57.90
2024-04-16T07:26:52.420Z,57.28
2024-04-16T07:29:19.198Z,56.74
2024-04-16T07:31:49.863Z,56.78
2024-04-16T07:34:17.490Z,56.88
2024-04-16T07:36:44.191Z,56.92
2024-04-16T07:39:11.447Z,57.67
2024-04-16T07:41:38.185Z,57.30
2024-04-16T07:44:04.879Z,58.30
2024-04-16T07:46:34.755Z,57.75
2024-04-16T07:49:01.816Z,58.82
2024-04-16T07:51:28.589Z,58.42
2024-04-16T07:53:55.293Z,58.37
2024-04-16T07:56:22.619Z,57.03
2024-04-16T07:58:49.604Z,57.33
2024-04-16T08:01:18.146Z,55.71
2024-04-16T08:03:45.229Z,54.91
2024-04-16T08:06:12.119Z,53.84
2024-04-16T08:08:39.434Z,54.04
2024-04-16T08:11:15.717Z,53.43
2024-04-16T08:13:42.786Z,52.63
2024-04-16T08:16:09.972Z,52.62
2024-04-16T08:18:37.126Z,52.37
2024-04-16T08:21:03.857Z,52.69
2024-04-16T08:23:30.931Z,52.61
2024-04-16T08:26:07.880Z,53.50
2024-04-16T08:28:37.035Z,53.81
2024-04-16T08:31:04.398Z,53.13
2024-04-16T08:33:31.444Z,53.67
2024-04-16T08:35:58.903Z,53.21
2024-04-16T08:38:26.619Z,53.17
2024-04-16T08:40:53.735Z,52.87
2024-04-16T08:43:21.905Z,52.56
2024-04-16T08:45:50.706Z,52.59
2024-04-16T08:48:19.096Z,53.31
2024-04-16T08:50:47.336Z,52.58
2024-04-16T08:53:14.817Z,51.23
2024-04-16T08:55:43.038Z,52.02
2024-04-16T08:58:10.240Z,50.91
2024-04-16T09:00:37.371Z,51.29
2024-04-16T09:03:04.984Z,51.68
2024-04-16T09:05:31.862Z,51.28
2024-04-16T09:07:58.543Z,52.04
2024-04-16T09:10:26.270Z,51.15
2024-04-16T09:12:54.911Z,51.71
2024-04-16T09:15:22.273Z,51.55
2024-04-16T09:17:56.435Z,50.08
2024-04-16T09:20:26.629Z,49.41
2024-04-16T09:22:54.366Z,48.53
2024-04-16T09:25:26.260Z,48.75
2024-04-16T09:27:57.851Z,48.56
2024-04-16T09:30:25.267Z,49.11
2024-04-16T09:33:00.443Z,48.00
2024-04-16T09:35:28.670Z,48.87
2024-04-16T09:38:01.745Z,48.50
2024-04-16T09:40:31.033Z,48.29
2024-04-16T09:43:02.166Z,49.00
2024-04-16T09:45:31.523Z,48.25
2024-04-16T09:47:59.741Z,48.31
2024-04-16T09:50:42.146Z,48.91
2024-04-16T09:53:19.164Z,49.06
2024-04-16T09:55:47.570Z,48.80
2024-04-16T09:58:18.319Z,48.83
2024-04-16T10:00:45.536Z,47.31
2024-04-16T10:03:13.420Z,48.24
2024-04-16T10:05:40.148Z,49.48
2024-04-16T10:08:07.412Z,47.74
2024-04-16T10:10:34.576Z,49.38
2024-04-16T10:13:02.942Z,46.92
2024-04-16T10:15:29.955Z,46.45
2024-04-16T10:17:57.753Z,46.14
2024-04-16T10:20:29.520Z,47.05
2024-04-16T10:23:01.527Z,45.45
2024-04-16T10:25:33.880Z,46.76
2024-04-16T10:28:03.833Z,46.25
2024-04-16T10:30:32.376Z,45.89
2024-04-16T10:33:02.672Z,46.20
2024-04-16T10:35:30.132Z,45.98
2024-04-16T10:37:57.927Z,45.74
2024-04-16T10:40:29.134Z,44.74
2024-04-16T10:43:01.583Z,44.51
2024-04-16T10:45:30.319Z,44.90
2024-04-16T10:47:58.724Z,44.48
2024-04-16T10:50:25.601Z,44.95
2024-04-16T10:52:52.796Z,43.19
2024-04-16T10:55:19.603Z,43.33
2024-04-16T10:57:46.795Z,43.11
2024-04-16T11:00:16.750Z,42.59
2024-04-16T11:02:43.919Z,41.40
2024-04-16T11:05:10.723Z,41.78
2024-04-16T11:07:38.238Z,41.56
2024-04-16T11:10:05.934Z,41.64
2024-04-16T11:12:32.902Z,41.29
2024-04-16T11:14:59.814Z,41.05
2024-04-16T11:17:29.878Z,39.79
2024-04-16T11:19:57.642Z,40.26
2024-04-16T11:22:25.666Z,40.63
2024-04-16T11:24:54.688Z,40.13
2024-04-16T11:27:23.766Z,40.38
2024-04-16T11:29:51.096Z,40.44
2024-04-16T11:32:18.852Z,40.75
2024-04-16T11:34:46.978Z,40.92
2024-04-16T11:37:17.283Z,40.84
2024-04-16T11:39:44.633Z,39.87
2024-04-16T11:42:12.547Z,40.76
2024-04-16T11:44:40.400Z,40.12
2024-04-16T11:47:11.295Z,40.30
2024-04-16T11:49:41.613Z,40.81
2024-04-16T11:52:08.478Z,40.12
2024-04-16T11:54:36.780Z,40.38
2024-04-16T11:57:05.496Z,40.41
2024-04-16T11:59:32.772Z,40.70
2024-04-16T12:01:59.975Z,41.51
2024-04-16T12:04:27.951Z,42.82
2024-04-16T12:06:55.574Z,42.56
2024-04-16T12:09:22.253Z,42.76
2024-04-16T12:11:49.013Z,43.17
2024-04-16T12:14:15.970Z,43.98
2024-04-16T12:16:42.746Z,43.41
2024-04-16T12:19:10.096Z,43.30
2024-04-16T12:21:37.320Z,43.39
2024-04-16T12:24:04.605Z,42.95
2024-04-16T12:26:31.288Z,42.79
2024-04-16T12:28:59.870Z,44.41
2024-04-16T12:31:27.114Z,43.97
2024-04-16T12:33:54.290Z,43.81
2024-04-16T12:36:21.056Z,42.11
2024-04-16T12:38:47.756Z,42.19
2024-04-16T12:41:14.427Z,42.68
2024-04-16T12:43:41.237Z,42.79
2024-04-16T12:46:08.690Z,40.85
2024-04-16T12:48:36.573Z,41.01
2024-04-16T12:51:03.474Z,40.10
2024-04-16T12:53:30.711Z,39.86
2024-04-16T12:55:57.406Z,40.87
2024-04-16T12:58:24.099Z,41.99
2024-04-16T13:00:50.875Z,46.07
2024-04-16T13:03:17.836Z,49.45
2024-04-16T13:05:46.003Z,50.23
2024-04-16T13:08:14.713Z,51.51
2024-04-16T13:10:42.759Z,51.93
2024-04-16T13:13:09.550Z,53.43
2024-04-16T13:15:36.255Z,53.84
2024-04-16T13:18:03.998Z,54.35
2024-04-16T13:20:31.068Z,54.33
2024-04-16T13:22:57.780Z,54.42
2024-04-16T13:25:24.618Z,54.51
2024-04-16T13:27:51.422Z,53.70
2024-04-16T13:30:18.222Z,53.71
2024-04-16T13:32:45.440Z,54.34
2024-04-16T13:35:12.376Z,53.41
2024-04-16T13:37:39.255Z,53.51
2024-04-16T13:40:09.940Z,52.76
2024-04-16T13:42:38.617Z,54.59
2024-04-16T13:45:06.428Z,55.33
2024-04-16T13:47:33.518Z,55.42
2024-04-16T13:50:00.328Z,53.30
2024-04-16T13:52:27.164Z,52.73
2024-04-16T13:54:53.870Z,50.59
2024-04-16T13:57:20.552Z,48.85
2024-04-16T13:59:47.528Z,48.06
2024-04-16T14:02:14.453Z,47.31
2024-04-16T14:04:41.359Z,45.97
2024-04-16T14:07:08.150Z,45.38
2024-04-16T14:09:35.349Z,45.87
2024-04-16T14:12:02.112Z,45.68
2024-04-16T14:14:28.828Z,44.95
2024-04-16T14:16:55.603Z,44.34
2024-04-16T14:19:22.445Z,45.21
2024-04-16T14:21:49.568Z,47.18
2024-04-16T14:24:20.117Z,47.36
2024-04-16T14:26:46.786Z,46.82
2024-04-16T14:29:13.504Z,45.69
2024-04-16T14:31:41.243Z,46.08
2024-04-16T14:34:08.148Z,47.43
2024-04-16T14:36:34.950Z,46.68
2024-04-16T14:39:01.844Z,45.87
2024-04-16T14:41:29.601Z,46.41
2024-04-16T14:43:56.292Z,46.46
2024-04-16T14:46:23.421Z,45.27
2024-04-16T14:48:50.340Z,46.06
2024-04-16T14:51:17.117Z,46.71
2024-04-16T14:53:47.516Z,45.65
2024-04-16T14:56:14.391Z,45.38
2024-04-16T14:58:41.273Z,45.48
2024-04-16T15:01:08.097Z,45.59
2024-04-16T15:03:35.739Z,46.39
2024-04-16T15:06:02.545Z,47.50
2024-04-16T15:08:29.274Z,47.31
2024-04-16T15:10:56.009Z,47.60
2024-04-16T15:13:23.456Z,47.12
2024-04-16T15:15:59.863Z,49.02
2024-04-16T15:18:27.610Z,54.21
2024-04-16T15:20:55.115Z,55.43
2024-04-16T15:23:21.793Z,55.53
2024-04-16T15:25:48.678Z,55.79
2024-04-16T15:28:16.446Z,56.24
2024-04-16T15:30:43.363Z,58.33
2024-04-16T15:33:10.403Z,57.87
2024-04-16T15:35:47.787Z,56.47
2024-04-16T15:38:14.867Z,57.30
2024-04-16T15:40:42.033Z,57.79
2024-04-16T15:43:08.892Z,57.51
2024-04-16T15:45:35.631Z,57.24
2024-04-16T15:48:02.405Z,56.40
2024-04-16T15:50:29.223Z,57.61
2024-04-16T15:52:56.781Z,57.32
2024-04-16T15:55:23.523Z,59.27
2024-04-16T15:57:50.197Z,60.50
2024-04-16T16:00:17.597Z,60.94
2024-04-16T16:02:46.577Z,61.89
2024-04-16T16:05:13.568Z,61.64
2024-04-16T16:07:40.318Z,61.91
2024-04-16T16:10:10.263Z,61.58
2024-04-16T16:12:37.294Z,60.18
2024-04-16T16:15:04.160Z,60.35
2024-04-16T16:17:30.988Z,59.78
2024-04-16T16:19:58.186Z,59.59
2024-04-16T16:22:25.076Z,58.61
2024-04-16T16:24:52.683Z,57.89
2024-04-16T16:27:19.713Z,57.20
2024-04-16T16:29:46.497Z,56.59
2024-04-16T16:32:15.210Z,57.79
2024-04-16T16:34:42.414Z,57.20
2024-04-16T16:37:09.278Z,56.79
2024-04-16T16:39:36.016Z,56.51
2024-04-16T16:42:02.670Z,56.97
2024-04-16T16:44:29.391Z,55.70
2024-04-16T16:46:56.136Z,56.19
2024-04-16T16:49:22.846Z,55.28
2024-04-16T16:51:51.971Z,54.79
2024-04-16T16:54:18.700Z,54.41
2024-04-16T16:56:45.381Z,54.55
2024-04-16T16:59:12.067Z,54.66
2024-04-16T17:01:38.869Z,54.51
2024-04-16T17:04:05.642Z,54.26
2024-04-16T17:06:32.550Z,54.38
2024-04-16T17:08:59.799Z,53.87
2024-04-16T17:11:26.489Z,54.04
2024-04-16T17:13:53.261Z,54.18
2024-04-16T17:16:20.100Z,54.38
2024-04-16T17:18:46.890Z,55.49
2024-04-16T17:21:13.622Z,55.37
2024-04-16T17:23:40.415Z,55.00
2024-04-16T17:26:07.522Z,55.12
2024-04-16T17:28:34.334Z,55.06
2024-04-16T17:31:01.101Z,56.00
2024-04-16T17:33:27.903Z,56.01
2024-04-16T17:35:54.648Z,55.80
2024-04-16T17:38:21.489Z,56.10
2024-04-16T17:40:48.476Z,57.30
2024-04-16T17:43:15.364Z,57.09
2024-04-16T17:45:42.154Z,56.94
2024-04-16T17:48:09.978Z,57.30
2024-04-16T17:50:37.342Z,57.90
2024-04-16T17:53:04.195Z,58.45
2024-04-16T17:55:31.378Z,58.56
2024-04-16T17:57:58.247Z,58.96
2024-04-16T18:00:26.780Z,58.76
2024-04-16T18:02:53.690Z,59.67
2024-04-16T18:05:20.890Z,59.74
2024-04-16T18:07:47.737Z,59.07
2024-04-16T18:10:15.496Z,58.46
2024-04-16T18:12:42.232Z,58.33
2024-04-16T18:15:10.052Z,57.83
2024-04-16T18:17:37.112Z,58.15
2024-04-16T18:20:04.310Z,58.11
2024-04-16T18:22:31.740Z,57.86
2024-04-16T18:24:58.603Z,58.58
2024-04-16T18:27:25.493Z,57.65
2024-04-16T18:29:52.235Z,57.16
2024-04-16T18:32:19.058Z,57.07
2024-04-16T18:34:47.918Z,56.82
2024-04-16T18:37:16.110Z,57.29
2024-04-16T18:39:42.911Z,56.80
2024-04-16T18:42:10.865Z,57.59
2024-04-16T18:44:38.131Z,56.71
2024-04-16T18:47:06.111Z,55.87
2024-04-16T18:49:33.096Z,55.97
2024-04-16T18:51:59.841Z,55.36
2024-04-16T18:54:26.737Z,55.13
2024-04-16T18:56:53.690Z,55.56
2024-04-16T18:59:20.756Z,56.21
2024-04-16T19:01:47.584Z,55.73
2024-04-16T19:04:14.467Z,56.47
2024-04-16T19:06:41.876Z,55.95
2024-04-16T19:09:08.811Z,55.95
2024-04-16T19:11:38.286Z,55.38
2024-04-16T19:14:05.413Z,55.10
2024-04-16T19:16:32.246Z,54.79
2024-04-16T19:18:59.013Z,54.90
2024-04-16T19:21:25.667Z,54.62
2024-04-16T19:23:52.534Z,54.72
2024-04-16T19:26:19.434Z,54.52
2024-04-16T19:28:46.820Z,54.01
2024-04-16T19:31:13.627Z,54.12
2024-04-16T19:33:40.715Z,53.84
2024-04-16T19:36:08.008Z,53.77
2024-04-16T19:38:36.122Z,53.62
2024-04-16T19:41:02.884Z,53.93
2024-04-16T19:43:29.594Z,53.94
2024-04-16T19:45:57.190Z,54.16
2024-04-16T19:48:24.062Z,53.81
2024-04-16T19:50:50.758Z,54.07
2024-04-16T19:53:17.508Z,54.02
2024-04-16T19:55:45.278Z,54.17
2024-04-16T19:58:12.054Z,53.80
2024-04-16T20:00:38.914Z,53.36
2024-04-16T20:03:05.893Z,52.92
2024-04-16T20:05:36.276Z,53.15
2024-04-16T20:08:03.477Z,53.18
2024-04-16T20:10:30.310Z,52.77
2024-04-16T20:12:57.764Z,52.82
2024-04-16T20:15:24.584Z,52.96
2024-04-16T20:17:51.504Z,53.13
2024-04-16T20:20:18.513Z,53.47
2024-04-16T20:22:47.700Z,53.25
2024-04-16T20:25:18.831Z,53.71
2024-04-16T20:27:46.013Z,53.46
2024-04-16T20:30:13.018Z,53.28
2024-04-16T20:32:39.832Z,54.10
2024-04-16T20:35:06.672Z,53.97
2024-04-16T20:37:33.409Z,54.26
2024-04-16T20:40:00.258Z,54.70
2024-04-16T20:42:27.101Z,54.90
2024-04-16T20:44:53.796Z,54.86
2024-04-16T20:47:20.520Z,54.98
2024-04-16T20:49:47.799Z,55.35
2024-04-16T20:52:14.560Z,55.11
2024-04-16T20:54:41.291Z,54.95
2024-04-16T20:57:07.992Z,54.73
2024-04-16T20:59:35.134Z,55.21
2024-04-16T21:02:03.755Z,55.52
2024-04-16T21:04:30.471Z,55.48
2024-04-16T21:06:57.355Z,55.32
2024-04-16T21:09:24.040Z,55.00
2024-04-16T21:11:50.730Z,55.17
2024-04-16T21:14:17.503Z,55.17
2024-04-16T21:16:44.274Z,55.15
2024-04-16T21:19:10.943Z,54.94
2024-04-16T21:21:38.151Z,55.06
2024-04-16T21:24:05.953Z,54.55
2024-04-16T21:26:32.766Z,54.15
2024-04-16T21:28:59.658Z,54.39
2024-04-16T21:31:26.461Z,54.21
2024-04-16T21:33:53.155Z,54.03
2024-04-16T21:36:19.866Z,53.85
2024-04-16T21:38:46.542Z,54.07
2024-04-16T21:41:13.196Z,54.08
2024-04-16T21:43:40.929Z,54.15
2024-04-16T21:46:07.716Z,54.02
2024-04-16T21:48:34.463Z,53.88
2024-04-16T21:51:01.158Z,53.36
2024-04-16T21:53:28.011Z,53.17
2024-04-16T21:55:54.826Z,53.15
2024-04-16T21:58:21.539Z,53.42
2024-04-16T22:00:48.250Z,53.14
2024-04-16T22:03:15.189Z,53.15
2024-04-16T22:05:41.993Z,52.84
2024-04-16T22:08:08.719Z,52.96
2024-04-16T22:10:35.546Z,52.73
2024-04-16T22:13:02.292Z,53.13
2024-04-16T22:15:29.025Z,52.70
2024-04-16T22:17:55.813Z,52.73
2024-04-16T22:20:22.617Z,52.35
2024-04-16T22:22:49.371Z,52.66
2024-04-16T22:25:16.094Z,52.37
2024-04-16T22:27:42.766Z,52.32
2024-04-16T22:30:09.950Z,52.70
2024-04-16T22:32:36.773Z,52.52
2024-04-16T22:35:03.633Z,52.36
2024-04-16T22:37:30.748Z,53.10
2024-04-16T22:39:57.444Z,52.86
2024-04-16T22:42:24.173Z,53.20
2024-04-16T22:44:50.891Z,53.13
2024-04-16T22:47:17.597Z,53.30
2024-04-16T22:49:44.347Z,53.29
2024-04-16T22:52:11.027Z,53.26
2024-04-16T22:54:37.767Z,53.95
2024-04-16T22:57:04.647Z,54.25
2024-04-16T22:59:31.395Z,54.74
2024-04-16T23:02:01.100Z,55.05
2024-04-16T23:04:29.315Z,55.41
2024-04-16T23:06:56.224Z,55.37
2024-04-16T23:09:22.931Z,56.19
2024-04-16T23:11:49.741Z,56.49
2024-04-16T23:14:16.423Z,56.36
2024-04-16T23:16:43.496Z,56.99
2024-04-16T23:19:10.167Z,56.50
2024-04-16T23:21:37.900Z,57.42
2024-04-16T23:24:04.846Z,56.75
2024-04-16T23:26:31.586Z,55.81
2024-04-16T23:28:58.377Z,56.66
2024-04-16T23:31:25.120Z,55.52
2024-04-16T23:33:51.806Z,55.00
2024-04-16T23:36:18.956Z,54.84
2024-04-16T23:38:45.649Z,54.87
2024-04-16T23:41:12.333Z,54.43
2024-04-16T23:43:39.078Z,54.69
2024-04-16T23:46:05.861Z,55.32
2024-04-16T23:48:32.776Z,54.70
2024-04-16T23:50:59.843Z,55.24
2024-04-16T23:53:26.555Z,55.45
2024-04-16T23:55:53.368Z,55.77
2024-04-16T23:58:20.120Z,55.65
